createdAt,value
2018-02-20T00:02:22.714Z,47.03
2018-02-20T00:04:51.360Z,39.40
2018-02-20T00:07:18.887Z,41.80
2018-02-20T00:09:46.416Z,41.80
2018-02-20T00:12:13.944Z,44.95
2018-02-20T00:14:41.465Z,48.10
2018-02-20T00:17:09.002Z,39.03
2018-02-20T00:19:36.514Z,43.30
2018-02-20T00:22:04.791Z,46.58
2018-02-20T00:24:33.068Z,51.35
2018-02-20T00:27:00.556Z,43.35
2018-02-20T00:29:28.828Z,43.20
2018-02-20T00:31:57.111Z,45.10
2018-02-20T00:34:25.380Z,43.03
2018-02-20T00:36:52.874Z,47.47
2018-02-20T00:39:20.398Z,49.97
2018-02-20T00:41:47.930Z,49.70
2018-02-20T00:44:15.432Z,47.42
2018-02-20T00:46:42.952Z,50.03
2018-02-20T00:49:10.446Z,54.90
2018-02-20T00:51:37.959Z,52.70
2018-02-20T00:54:05.494Z,63.20
2018-02-20T00:56:33.744Z,49.97
2018-02-20T00:59:02.968Z,57.35
2018-02-20T01:01:30.461Z,52.08
2018-02-20T01:03:57.982Z,57.03
2018-02-20T01:06:27.012Z,52.80
2018-02-20T01:08:55.287Z,65.15
2018-02-20T01:11:23.572Z,63.58
2018-02-20T01:13:51.838Z,57.67
2018-02-20T01:16:19.349Z,57.10
2018-02-20T01:18:46.851Z,62.78
2018-02-20T01:21:14.372Z,61.37
2018-02-20T01:23:41.934Z,58.92
2018-02-20T01:26:09.466Z,64.40
2018-02-20T01:28:37.727Z,54.95
2018-02-20T01:31:06.003Z,71.97
2018-02-20T01:33:33.533Z,57.65
2018-02-20T01:36:01.019Z,65.93
2018-02-20T01:38:28.542Z,63.58
2018-02-20T01:40:56.036Z,71.53
2018-02-20T01:43:23.561Z,60.53
2018-02-20T01:45:51.057Z,58.75
2018-02-20T01:48:18.581Z,65.35
2018-02-20T01:50:58.185Z,78.57
2018-02-20T01:53:25.716Z,57.45
2018-02-20T01:55:53.239Z,73.80
2018-02-20T01:58:21.488Z,69.60
2018-02-20T02:00:49.016Z,66.97
2018-02-20T02:03:16.536Z,60.47
2018-02-20T02:05:44.811Z,59.90
2018-02-20T02:08:12.328Z,62.95
2018-02-20T02:10:39.821Z,71.43
2018-02-20T02:13:07.328Z,60.40
2018-02-20T02:15:34.837Z,67.28
2018-02-20T02:18:02.341Z,67.20
2018-02-20T02:20:30.639Z,65.05
2018-02-20T02:22:58.135Z,62.85
2018-02-20T02:25:25.652Z,72.90
2018-02-20T02:27:53.215Z,77.37
2018-02-20T02:30:20.732Z,68.72
2018-02-20T02:32:48.243Z,67.90
2018-02-20T02:35:16.519Z,62.53
2018-02-20T02:37:45.427Z,75.72
2018-02-20T02:40:12.938Z,59.35
2018-02-20T02:42:40.431Z,64.85
2018-02-20T02:45:08.700Z,56.72
2018-02-20T02:47:36.247Z,77.57
2018-02-20T02:50:03.773Z,71.28
2018-02-20T02:52:31.278Z,58.28
2018-02-20T02:54:58.793Z,71.05
2018-02-20T02:57:26.290Z,68.32
2018-02-20T02:59:53.803Z,60.38
2018-02-20T03:02:21.286Z,70.07
2018-02-20T03:04:48.819Z,62.08
2018-02-20T03:07:17.095Z,62.50
2018-02-20T03:09:45.377Z,56.88
2018-02-20T03:12:13.654Z,76.47
2018-02-20T03:14:41.176Z,76.45
2018-02-20T03:17:08.669Z,69.82
2018-02-20T03:19:36.168Z,68.85
2018-02-20T03:22:03.677Z,60.05
2018-02-20T03:24:31.204Z,65.00
2018-02-20T03:26:58.711Z,68.32
2018-02-20T03:29:26.213Z,71.85
2018-02-20T03:31:54.477Z,72.40
2018-02-20T03:34:22.023Z,61.30
2018-02-20T03:36:49.524Z,78.25
2018-02-20T03:39:17.075Z,60.75
2018-02-20T03:41:44.584Z,75.32
2018-02-20T03:44:12.155Z,80.10
2018-02-20T03:46:39.667Z,64.68
2018-02-20T03:49:07.982Z,65.53
2018-02-20T03:51:35.498Z,70.30
2018-02-20T03:54:02.994Z,70.10
2018-02-20T03:56:30.500Z,70.85
2018-02-20T03:58:57.994Z,74.30
2018-02-20T04:01:26.279Z,76.43
2018-02-20T04:03:54.540Z,72.57
2018-02-20T04:06:22.068Z,80.22
2018-02-20T04:08:49.625Z,93.85
2018-02-20T04:11:17.134Z,66.60
2018-02-20T04:13:44.640Z,69.62
2018-02-20T04:16:12.155Z,74.68
2018-02-20T04:18:39.657Z,65.10
2018-02-20T04:21:07.196Z,57.53
2018-02-20T04:23:34.745Z,72.47
2018-02-20T04:26:02.269Z,66.40
2018-02-20T04:28:29.798Z,64.97
2018-02-20T04:30:58.068Z,69.78
2018-02-20T04:33:26.176Z,77.03
2018-02-20T04:35:53.703Z,68.05
2018-02-20T04:38:21.974Z,65.90
2018-02-20T04:40:51.003Z,66.95
2018-02-20T04:43:19.311Z,77.78
2018-02-20T04:45:46.849Z,67.05
2018-02-20T04:48:15.117Z,74.15
2018-02-20T04:50:43.389Z,73.95
2018-02-20T04:53:10.893Z,66.72
2018-02-20T04:55:38.408Z,78.47
2018-02-20T04:58:05.909Z,83.07
2018-02-20T05:00:33.424Z,65.68
2018-02-20T05:03:00.935Z,72.37
2018-02-20T05:05:28.446Z,80.62
2018-02-20T05:07:55.932Z,73.65
2018-02-20T05:10:23.488Z,72.75
2018-02-20T05:12:51.067Z,64.65
2018-02-20T05:15:19.426Z,72.75
2018-02-20T05:17:46.931Z,71.28
2018-02-20T05:20:15.222Z,80.43
2018-02-20T05:22:42.734Z,68.15
2018-02-20T05:25:10.252Z,71.25
2018-02-20T05:27:37.758Z,74.35
2018-02-20T05:30:05.260Z,84.87
2018-02-20T05:32:33.572Z,74.80
2018-02-20T05:35:01.094Z,73.85
2018-02-20T05:37:29.370Z,74.68
2018-02-20T05:39:57.664Z,74.47
2018-02-20T05:42:25.929Z,79.72
2018-02-20T05:44:54.213Z,68.70
2018-02-20T05:47:21.730Z,73.12
2018-02-20T05:49:49.250Z,65.20
2018-02-20T05:52:17.947Z,76.43
2018-02-20T05:54:46.215Z,77.45
2018-02-20T05:57:13.739Z,80.60
2018-02-20T05:59:41.237Z,77.85
2018-02-20T06:02:09.516Z,76.80
2018-02-20T06:04:37.015Z,78.25
2018-02-20T06:07:04.525Z,75.07
2018-02-20T06:09:32.022Z,73.18
2018-02-20T06:12:00.297Z,75.70
2018-02-20T06:14:28.578Z,61.78
2018-02-20T06:16:56.848Z,76.18
2018-02-20T06:19:24.347Z,84.43
2018-02-20T06:21:51.875Z,73.20
2018-02-20T06:24:20.142Z,70.43
2018-02-20T06:26:47.656Z,68.43
2018-02-20T06:29:15.156Z,76.22
2018-02-20T06:31:42.662Z,78.03
2018-02-20T06:34:10.922Z,69.05
2018-02-20T06:36:38.440Z,68.12
2018-02-20T06:39:05.921Z,80.15
2018-02-20T06:41:33.425Z,86.63
2018-02-20T06:44:01.719Z,91.60
2018-02-20T06:46:29.261Z,70.10
2018-02-20T06:48:56.762Z,70.47
2018-02-20T06:51:24.282Z,58.97
2018-02-20T06:53:51.804Z,75.12
2018-02-20T06:56:19.448Z,83.68
2018-02-20T06:58:47.034Z,88.35
2018-02-20T07:01:14.586Z,64.03
2018-02-20T07:03:42.110Z,76.85
2018-02-20T07:06:10.424Z,73.62
2018-02-20T07:08:38.121Z,86.50
2018-02-20T07:11:05.638Z,94.55
2018-02-20T07:13:34.121Z,66.97
2018-02-20T07:16:02.433Z,70.50
2018-02-20T07:18:29.961Z,72.93
2018-02-20T07:20:58.233Z,73.32
2018-02-20T07:23:25.785Z,67.15
2018-02-20T07:25:53.289Z,85.50
2018-02-20T07:28:21.282Z,69.40
2018-02-20T07:30:48.796Z,75.35
2018-02-20T07:33:16.332Z,82.65
2018-02-20T07:35:43.828Z,75.85
2018-02-20T07:38:11.491Z,68.93
2018-02-20T07:40:39.007Z,79.00
2018-02-20T07:43:06.603Z,79.30
2018-02-20T07:45:34.136Z,78.28
2018-02-20T07:48:01.666Z,76.30
2018-02-20T07:50:29.939Z,76.55
2018-02-20T07:52:58.221Z,87.72
2018-02-20T07:55:27.198Z,84.72
2018-02-20T07:57:54.757Z,83.10
2018-02-20T08:00:22.319Z,73.05
2018-02-20T08:02:49.847Z,81.28
2018-02-20T08:05:17.345Z,85.97
2018-02-20T08:07:44.834Z,65.72
2018-02-20T08:10:13.103Z,76.35
2018-02-20T08:12:42.096Z,90.87
2018-02-20T08:15:09.700Z,93.03
2018-02-20T08:17:37.209Z,80.93
2018-02-20T08:20:04.879Z,66.28
2018-02-20T08:22:32.447Z,75.68
2018-02-20T08:25:00.053Z,76.75
2018-02-20T08:27:27.594Z,76.53
2018-02-20T08:29:55.908Z,70.68
2018-02-20T08:32:24.427Z,78.82
2018-02-20T08:34:52.752Z,76.45
2018-02-20T08:37:21.125Z,82.40
2018-02-20T08:39:49.421Z,85.32
2018-02-20T08:42:17.695Z,72.62
2018-02-20T08:44:45.980Z,81.82
2018-02-20T08:47:13.527Z,79.70
2018-02-20T08:49:40.988Z,74.37
2018-02-20T08:52:08.568Z,79.80
2018-02-20T08:54:36.127Z,86.07
2018-02-20T08:57:04.424Z,82.53
2018-02-20T08:59:31.941Z,89.80
2018-02-20T09:01:59.501Z,88.32
2018-02-20T09:04:27.002Z,77.55
2018-02-20T09:06:55.265Z,86.90
2018-02-20T09:09:22.859Z,75.47
2018-02-20T09:11:51.142Z,99.53
2018-02-20T09:14:19.194Z,84.93
2018-02-20T09:16:46.724Z,79.43
2018-02-20T09:19:14.221Z,87.82
2018-02-20T09:21:42.508Z,76.93
2018-02-20T09:24:10.769Z,75.37
2018-02-20T09:26:38.290Z,80.62
2018-02-20T09:29:05.787Z,71.35
2018-02-20T09:31:33.310Z,72.95
2018-02-20T09:34:00.821Z,94.37
2018-02-20T09:36:28.322Z,75.78
2018-02-20T09:38:55.846Z,73.87
2018-02-20T09:41:23.342Z,94.28
2018-02-20T09:43:50.934Z,78.10
2018-02-20T09:46:18.432Z,72.55
2018-02-20T09:48:45.983Z,78.35
2018-02-20T09:51:13.524Z,89.97
2018-02-20T09:53:41.031Z,85.78
2018-02-20T09:56:08.534Z,77.22
2018-02-20T09:58:36.062Z,77.90
2018-02-20T10:01:05.079Z,84.13
2018-02-20T10:03:33.362Z,75.90
2018-02-20T10:06:00.858Z,79.12
2018-02-20T10:08:29.652Z,72.03
2018-02-20T10:10:57.149Z,86.15
2018-02-20T10:13:24.654Z,90.38
2018-02-20T10:15:52.173Z,71.55
2018-02-20T10:18:19.708Z,77.57
2018-02-20T10:20:47.245Z,82.93
2018-02-20T10:23:14.794Z,68.32
2018-02-20T10:25:42.272Z,79.87
2018-02-20T10:28:09.796Z,84.00
2018-02-20T10:30:37.296Z,77.90
2018-02-20T10:33:04.834Z,73.12
2018-02-20T10:35:32.346Z,62.70
2018-02-20T10:37:59.868Z,66.00
2018-02-20T10:40:28.225Z,69.28
2018-02-20T10:42:55.746Z,64.05
2018-02-20T10:45:23.285Z,64.75
2018-02-20T10:47:51.602Z,67.68
2018-02-20T10:50:19.099Z,69.85
2018-02-20T10:52:46.600Z,57.53
2018-02-20T10:55:14.110Z,75.62
2018-02-20T10:57:41.782Z,61.28
2018-02-20T11:00:09.307Z,70.28
2018-02-20T11:02:36.823Z,68.65
2018-02-20T11:05:04.351Z,66.05
2018-02-20T11:07:31.905Z,68.80
2018-02-20T11:09:59.414Z,56.78
2018-02-20T11:12:26.939Z,58.63
2018-02-20T11:14:54.461Z,60.10
2018-02-20T11:17:22.730Z,62.50
2018-02-20T11:19:50.235Z,56.13
2018-02-20T11:22:17.777Z,50.95
2018-02-20T11:24:46.079Z,55.58
2018-02-20T11:27:13.617Z,59.58
2018-02-20T11:29:42.010Z,63.78
2018-02-20T11:32:09.530Z,49.40
2018-02-20T11:34:37.044Z,51.37
2018-02-20T11:37:04.562Z,53.78
2018-02-20T11:39:32.924Z,51.45
2018-02-20T11:42:00.438Z,53.50
2018-02-20T11:44:27.958Z,51.50
2018-02-20T11:46:55.466Z,49.38
2018-02-20T11:49:23.762Z,44.33
2018-02-20T11:51:51.595Z,38.22
2018-02-20T11:54:19.105Z,48.25
2018-02-20T11:56:46.613Z,48.50
2018-02-20T11:59:14.173Z,41.53
2018-02-20T12:01:41.712Z,47.88
2018-02-20T12:04:09.255Z,49.42
2018-02-20T12:06:36.777Z,42.23
2018-02-20T12:09:04.373Z,36.85
2018-02-20T12:11:31.897Z,38.35
2018-02-20T12:13:59.555Z,44.17
2018-02-20T12:16:27.767Z,44.20
2018-02-20T12:18:56.049Z,54.78
2018-02-20T12:21:24.342Z,38.93
2018-02-20T12:23:52.622Z,40.03
2018-02-20T12:26:20.202Z,41.50
2018-02-20T12:28:47.870Z,38.83
2018-02-20T12:31:15.449Z,41.63
2018-02-20T12:33:43.011Z,37.23
2018-02-20T12:36:10.542Z,38.75
2018-02-20T12:38:38.830Z,48.63
2018-02-20T12:41:07.105Z,36.53
2018-02-20T12:43:35.422Z,31.08
2018-02-20T12:46:02.918Z,34.70
2018-02-20T12:48:30.481Z,41.57
2018-02-20T12:50:57.984Z,32.87
2018-02-20T12:53:25.644Z,46.70
2018-02-20T12:55:53.980Z,36.73
2018-02-20T12:58:21.576Z,33.40
2018-02-20T13:00:49.104Z,33.40
2018-02-20T13:03:16.617Z,44.70
2018-02-20T13:05:44.135Z,44.20
2018-02-20T13:08:12.506Z,37.63
2018-02-20T13:10:40.022Z,39.47
2018-02-20T13:13:07.630Z,36.73
2018-02-20T13:15:35.183Z,32.20
2018-02-20T13:18:02.817Z,34.13
2018-02-20T13:20:31.094Z,40.60
2018-02-20T13:22:59.379Z,38.13
2018-02-20T13:25:27.685Z,35.27
2018-02-20T13:27:55.243Z,50.40
2018-02-20T13:30:22.772Z,38.20
2018-02-20T13:32:50.291Z,38.60
2018-02-20T13:35:17.808Z,46.00
2018-02-20T13:37:46.093Z,43.53
2018-02-20T13:40:15.089Z,41.42
2018-02-20T13:42:43.368Z,41.00
2018-02-20T13:45:11.649Z,42.78
2018-02-20T13:47:39.956Z,34.72
2018-02-20T13:50:07.480Z,38.55
2018-02-20T13:52:35.063Z,47.38
2018-02-20T13:55:02.646Z,40.72
2018-02-20T13:57:30.170Z,33.80
2018-02-20T13:59:57.673Z,38.03
2018-02-20T14:02:25.185Z,43.78
2018-02-20T14:04:53.382Z,29.55
2018-02-20T14:07:20.906Z,34.08
2018-02-20T14:09:48.485Z,32.15
2018-02-20T14:12:16.001Z,35.92
2018-02-20T14:14:43.509Z,30.98
2018-02-20T14:17:11.014Z,32.08
2018-02-20T14:19:39.317Z,32.85
2018-02-20T14:22:06.846Z,38.83
2018-02-20T14:24:34.372Z,36.35
2018-02-20T14:27:02.668Z,34.33
2018-02-20T14:29:30.188Z,34.72
2018-02-20T14:31:57.725Z,40.22
2018-02-20T14:34:25.989Z,35.88
2018-02-20T14:36:53.612Z,36.70
2018-02-20T14:39:21.112Z,30.60
2018-02-20T14:41:48.634Z,40.95
2018-02-20T14:44:16.151Z,28.67
2018-02-20T14:46:43.665Z,30.25
2018-02-20T14:49:11.161Z,29.77
2018-02-20T14:51:38.672Z,25.27
2018-02-20T14:54:06.248Z,47.17
2018-02-20T14:56:34.517Z,31.48
2018-02-20T14:59:02.036Z,36.55
2018-02-20T15:01:29.561Z,29.80
2018-02-20T15:03:57.096Z,32.85
2018-02-20T15:06:25.368Z,25.30
2018-02-20T15:08:53.644Z,27.37
2018-02-20T15:11:21.147Z,37.85
2018-02-20T15:13:48.644Z,30.62
2018-02-20T15:16:16.165Z,29.25
2018-02-20T15:18:44.312Z,23.02
2018-02-20T15:21:12.620Z,23.52
2018-02-20T15:23:40.144Z,36.75
2018-02-20T15:26:07.686Z,32.08
2018-02-20T15:28:35.189Z,29.70
2018-02-20T15:31:03.501Z,27.70
2018-02-20T15:33:31.042Z,24.17
2018-02-20T15:35:59.339Z,30.60
2018-02-20T15:38:26.833Z,28.45
2018-02-20T15:40:54.393Z,22.08
2018-02-20T15:43:21.937Z,18.60
2018-02-20T15:45:49.450Z,24.92
2018-02-20T15:48:16.938Z,27.58
2018-02-20T15:50:45.213Z,22.77
2018-02-20T15:53:13.470Z,27.77
2018-02-20T15:55:40.993Z,18.67
2018-02-20T15:58:13.600Z,19.85
2018-02-20T16:00:41.096Z,16.83
2018-02-20T16:03:09.479Z,29.35
2018-02-20T16:05:36.995Z,27.25
2018-02-20T16:08:04.527Z,25.73
2018-02-20T16:10:32.796Z,23.65
2018-02-20T16:13:01.103Z,22.60
2018-02-20T16:15:28.743Z,26.98
2018-02-20T16:17:57.050Z,19.25
2018-02-20T16:20:24.523Z,20.52
2018-02-20T16:22:52.025Z,31.12
2018-02-20T16:25:19.582Z,26.02
2018-02-20T16:27:47.140Z,19.67
2018-02-20T16:30:14.629Z,29.35
2018-02-20T16:32:43.881Z,23.17
2018-02-20T16:35:11.474Z,19.23
2018-02-20T16:37:38.972Z,25.00
2018-02-20T16:40:07.333Z,16.87
2018-02-20T16:42:34.888Z,25.05
2018-02-20T16:45:02.451Z,23.08
2018-02-20T16:47:29.977Z,22.48
2018-02-20T16:49:57.477Z,29.50
2018-02-20T16:52:25.040Z,21.25
2018-02-20T16:54:52.553Z,33.45
2018-02-20T16:57:20.864Z,31.35
2018-02-20T16:59:48.392Z,28.12
2018-02-20T17:02:16.801Z,20.33
2018-02-20T17:04:44.320Z,24.40
2018-02-20T17:07:11.853Z,22.62
2018-02-20T17:09:40.001Z,23.35
2018-02-20T17:12:07.569Z,21.73
2018-02-20T17:14:35.196Z,25.98
2018-02-20T17:17:03.624Z,29.30
2018-02-20T17:19:31.148Z,24.15
2018-02-20T17:21:59.515Z,22.62
2018-02-20T17:24:27.026Z,25.75
2018-02-20T17:26:54.571Z,24.95
2018-02-20T17:29:22.871Z,22.90
2018-02-20T17:31:50.380Z,24.42
2018-02-20T17:34:17.902Z,21.37
2018-02-20T17:36:45.398Z,26.52
2018-02-20T17:39:12.919Z,20.67
2018-02-20T17:41:40.503Z,24.20
2018-02-20T17:44:08.016Z,24.98
2018-02-20T17:46:36.382Z,26.20
2018-02-20T17:49:03.958Z,19.83
2018-02-20T17:51:31.466Z,40.80
2018-02-20T17:53:58.982Z,29.98
2018-02-20T17:56:26.490Z,24.77
2018-02-20T17:58:54.040Z,20.37
2018-02-20T18:01:21.545Z,28.45
2018-02-20T18:03:49.056Z,20.92
2018-02-20T18:06:17.394Z,25.23
2018-02-20T18:08:44.903Z,25.60
2018-02-20T18:11:12.459Z,24.27
2018-02-20T18:13:41.158Z,24.75
2018-02-20T18:16:09.449Z,22.52
2018-02-20T18:18:45.744Z,26.85
2018-02-20T18:21:13.270Z,21.85
2018-02-20T18:26:15.307Z,26.23
2018-02-20T18:28:42.839Z,26.90
2018-02-20T18:31:10.423Z,27.02
2018-02-20T18:33:38.680Z,22.25
2018-02-20T18:36:06.234Z,31.98
2018-02-20T18:38:34.539Z,34.25
2018-02-20T18:41:02.039Z,22.98
2018-02-20T18:43:29.598Z,21.27
2018-02-20T18:45:57.147Z,29.90
2018-02-20T18:48:24.661Z,27.87
2018-02-20T18:50:52.999Z,29.50
2018-02-20T18:53:20.626Z,21.45
2018-02-20T18:55:48.200Z,31.80
2018-02-20T18:58:15.730Z,32.33
2018-02-20T19:00:44.008Z,31.65
2018-02-20T19:03:12.309Z,29.20
2018-02-20T19:05:40.601Z,25.25
2018-02-20T19:08:08.130Z,22.80
2018-02-20T19:10:37.040Z,29.33
2018-02-20T19:13:05.316Z,28.67
2018-02-20T19:15:33.603Z,33.45
2018-02-20T19:18:01.880Z,36.95
2018-02-20T19:20:30.223Z,35.03
2018-02-20T19:22:57.758Z,27.83
2018-02-20T19:25:25.278Z,35.30
2018-02-20T19:27:53.063Z,31.87
2018-02-20T19:30:21.822Z,34.55
2018-02-20T19:32:49.314Z,40.17
2018-02-20T19:35:17.607Z,34.58
2018-02-20T19:37:45.110Z,28.58
2018-02-20T19:40:12.623Z,36.33
2018-02-20T19:42:40.907Z,41.60
2018-02-20T19:45:08.654Z,31.45
2018-02-20T19:47:36.176Z,31.23
2018-02-20T19:50:03.845Z,28.85
2018-02-20T19:52:31.385Z,36.28
2018-02-20T19:54:58.909Z,32.00
2018-02-20T19:57:27.210Z,34.60
2018-02-20T19:59:55.571Z,35.08
2018-02-20T20:02:25.160Z,37.58
2018-02-20T20:04:52.687Z,44.72
2018-02-20T20:07:20.234Z,41.60
2018-02-20T20:09:48.712Z,35.90
2018-02-20T20:12:16.275Z,30.73
2018-02-20T20:14:44.685Z,36.42
2018-02-20T20:17:12.201Z,39.25
2018-02-20T20:19:39.806Z,42.25
2018-02-20T20:22:07.361Z,44.95
2018-02-20T20:24:35.663Z,40.25
2018-02-20T20:27:03.231Z,39.85
2018-02-20T20:29:30.780Z,40.65
2018-02-20T20:31:59.134Z,38.45
2018-02-20T20:34:26.637Z,34.25
2018-02-20T20:36:54.406Z,64.72
2018-02-20T20:39:21.943Z,36.67
2018-02-20T20:41:50.240Z,30.15
2018-02-20T20:44:18.503Z,43.25
2018-02-20T20:46:49.638Z,38.85
2018-02-20T20:49:18.217Z,44.08
2018-02-20T20:51:46.545Z,39.58
2018-02-20T20:54:14.129Z,40.95
2018-02-20T20:56:43.855Z,38.20
2018-02-20T20:59:11.422Z,50.33
2018-02-20T21:01:38.972Z,46.67
2018-02-20T21:04:06.512Z,39.40
2018-02-20T21:06:34.006Z,37.50
2018-02-20T21:09:01.635Z,43.42
2018-02-20T21:11:29.093Z,37.47
2018-02-20T21:13:57.396Z,47.70
2018-02-20T21:16:24.910Z,42.70
2018-02-20T21:18:52.457Z,39.05
2018-02-20T21:21:19.954Z,37.67
2018-02-20T21:23:48.256Z,42.33
2018-02-20T21:26:15.818Z,37.35
2018-02-20T21:28:43.326Z,42.70
2018-02-20T21:31:12.204Z,40.72
2018-02-20T21:33:39.750Z,38.10
2018-02-20T21:36:07.333Z,45.03
2018-02-20T21:38:34.865Z,37.38
2018-02-20T21:41:03.298Z,44.35
2018-02-20T21:43:30.806Z,42.25
2018-02-20T21:45:59.078Z,41.17
2018-02-20T21:48:27.365Z,38.28
2018-02-20T21:50:56.366Z,39.22
2018-02-20T21:53:24.631Z,38.78
2018-02-20T21:55:52.379Z,38.20
2018-02-20T21:58:20.694Z,41.63
2018-02-20T22:00:48.981Z,42.17
2018-02-20T22:03:17.449Z,34.75
2018-02-20T22:05:45.779Z,36.15
2018-02-20T22:08:14.110Z,34.55
2018-02-20T22:10:41.708Z,38.08
2018-02-20T22:13:10.963Z,43.87
2018-02-20T22:15:38.572Z,29.23
2018-02-20T22:18:06.133Z,38.10
2018-02-20T22:20:33.714Z,29.83
2018-02-20T22:23:02.702Z,31.08
2018-02-20T22:25:30.409Z,43.63
2018-02-20T22:27:58.256Z,30.02
2018-02-20T22:30:26.724Z,39.15
2018-02-20T22:32:55.042Z,49.63
2018-02-20T22:35:24.654Z,32.30
2018-02-20T22:37:53.833Z,36.17
2018-02-20T22:40:21.353Z,32.55
2018-02-20T22:42:48.980Z,46.88
2018-02-20T22:45:16.658Z,36.50
2018-02-20T22:47:46.017Z,43.10
2018-02-20T22:50:13.526Z,36.60
2018-02-20T22:52:42.292Z,38.25
2018-02-20T22:55:09.887Z,38.45
2018-02-20T22:57:37.397Z,34.65
2018-02-20T23:00:04.974Z,35.83
2018-02-20T23:02:32.647Z,35.95
2018-02-20T23:05:00.162Z,44.65
2018-02-20T23:07:28.400Z,33.78
2018-02-20T23:09:55.927Z,34.72
2018-02-20T23:12:24.454Z,38.55
2018-02-20T23:14:51.967Z,37.80
2018-02-20T23:17:20.269Z,37.65
2018-02-20T23:19:47.761Z,30.08
2018-02-20T23:22:15.318Z,33.83
2018-02-20T23:24:42.864Z,32.83
2018-02-20T23:27:10.751Z,42.05
2018-02-20T23:29:38.270Z,32.38
2018-02-20T23:32:06.549Z,37.63
2018-02-20T23:34:34.826Z,38.50
2018-02-20T23:37:03.140Z,34.30
2018-02-20T23:39:30.665Z,32.70
2018-02-20T23:41:58.464Z,32.30
2018-02-20T23:44:26.758Z,35.78
2018-02-20T23:46:54.282Z,39.13
2018-02-20T23:49:21.789Z,37.50
2018-02-20T23:51:49.314Z,32.28
2018-02-20T23:54:16.817Z,36.25
2018-02-20T23:56:44.333Z,34.72
2018-02-20T23:59:11.842Z,40.83
